createdAt,value
2024-01-03T00:00:45.426Z,3.17
2024-01-03T00:04:28.380Z,2.60
2024-01-03T00:08:15.569Z,3.00
2024-01-03T00:11:59.533Z,2.90
2024-01-03T00:16:07.703Z,2.97
2024-01-03T00:19:57.146Z,2.45
2024-01-03T00:23:43.288Z,2.45
2024-01-03T00:27:25.218Z,2.60
2024-01-03T00:31:10.560Z,2.60
2024-01-03T00:34:53.668Z,2.58
2024-01-03T00:38:39.252Z,2.30
2024-01-03T00:42:21.065Z,2.70
2024-01-03T00:46:03.382Z,2.92
2024-01-03T00:49:45.818Z,2.78
2024-01-03T00:53:27.776Z,2.40
2024-01-03T00:57:10.000Z,2.80
2024-01-03T01:00:51.906Z,3.03
2024-01-03T01:04:34.594Z,2.70
2024-01-03T01:08:19.374Z,3.00
2024-01-03T01:12:02.505Z,3.63
2024-01-03T01:15:44.465Z,3.70
2024-01-03T01:19:26.414Z,3.63
2024-01-03T01:23:08.318Z,4.15
2024-01-03T01:26:50.129Z,4.18
2024-01-03T01:30:31.907Z,4.88
2024-01-03T01:34:13.962Z,4.60
2024-01-03T01:37:55.798Z,4.88
2024-01-03T01:41:37.680Z,4.18
2024-01-03T01:45:19.460Z,4.63
2024-01-03T01:49:01.507Z,3.88
2024-01-03T01:52:44.579Z,4.05
2024-01-03T01:56:26.694Z,4.10
2024-01-03T02:00:09.616Z,4.10
2024-01-03T02:03:52.714Z,4.07
2024-01-03T02:07:36.695Z,4.68
2024-01-03T02:11:18.558Z,3.75
2024-01-03T02:15:00.484Z,3.83
2024-01-03T02:18:43.269Z,3.95
2024-01-03T02:22:25.089Z,2.97
2024-01-03T02:26:13.927Z,2.90
2024-01-03T02:30:05.382Z,2.50
2024-01-03T02:33:47.312Z,2.40
2024-01-03T02:37:29.326Z,2.08
2024-01-03T02:41:11.091Z,2.15
2024-01-03T02:44:52.980Z,2.17
2024-01-03T02:48:34.953Z,2.05
2024-01-03T02:52:16.947Z,2.25
2024-01-03T02:55:59.421Z,1.98
2024-01-03T02:59:41.729Z,1.95
2024-01-03T03:03:23.624Z,2.55
2024-01-03T03:07:05.486Z,2.00
2024-01-03T03:10:47.326Z,2.55
2024-01-03T03:14:29.145Z,2.70
2024-01-03T03:18:11.871Z,2.17
2024-01-03T03:21:53.918Z,2.40
2024-01-03T03:25:35.701Z,2.22
2024-01-03T03:29:17.568Z,2.20
2024-01-03T03:32:59.482Z,2.30
2024-01-03T03:36:41.330Z,2.22
2024-01-03T03:40:24.455Z,2.78
2024-01-03T03:44:06.423Z,2.33
2024-01-03T03:47:48.584Z,2.25
2024-01-03T03:51:30.579Z,2.47
2024-01-03T03:55:14.434Z,2.30
2024-01-03T03:58:56.552Z,2.67
2024-01-03T04:02:38.456Z,2.33
2024-01-03T04:06:20.347Z,2.22
2024-01-03T04:10:02.390Z,2.70
2024-01-03T04:13:44.161Z,2.55
2024-01-03T04:17:26.001Z,3.33
2024-01-03T04:21:09.565Z,2.83
2024-01-03T04:24:51.566Z,2.78
2024-01-03T04:28:33.369Z,2.40
2024-01-03T04:32:15.175Z,3.50
2024-01-03T04:35:56.995Z,2.75
2024-01-03T04:39:38.868Z,2.88
2024-01-03T04:43:20.709Z,3.00
2024-01-03T04:47:02.709Z,2.75
2024-01-03T04:50:44.653Z,2.97
2024-01-03T04:54:26.617Z,3.25
2024-01-03T04:58:08.741Z,3.22
2024-01-03T05:01:50.719Z,3.42
2024-01-03T05:05:32.613Z,3.30
2024-01-03T05:09:14.608Z,3.72
2024-01-03T05:12:56.398Z,3.45
2024-01-03T05:16:38.195Z,3.88
2024-01-03T05:20:20.564Z,4.03
2024-01-03T05:24:02.433Z,3.53
2024-01-03T05:27:44.206Z,3.80
2024-01-03T05:31:26.113Z,3.53
2024-01-03T05:35:08.376Z,4.57
2024-01-03T05:38:50.170Z,3.47
2024-01-03T05:42:34.332Z,4.05
2024-01-03T05:46:16.134Z,4.15
2024-01-03T05:49:58.069Z,4.70
2024-01-03T05:53:40.603Z,4.30
2024-01-03T05:57:22.548Z,4.55
2024-01-03T06:01:04.561Z,4.43
2024-01-03T06:04:47.393Z,4.20
2024-01-03T06:08:29.437Z,3.83
2024-01-03T06:12:14.745Z,4.50
2024-01-03T06:15:57.372Z,4.82
2024-01-03T06:19:39.376Z,4.57
2024-01-03T06:23:21.547Z,4.00
2024-01-03T06:27:03.789Z,4.50
2024-01-03T06:30:45.870Z,3.65
2024-01-03T06:34:27.922Z,4.38
2024-01-03T06:38:09.946Z,4.20
2024-01-03T06:41:51.920Z,4.05
2024-01-03T06:45:34.379Z,4.60
2024-01-03T06:49:16.396Z,3.60
2024-01-03T06:52:58.461Z,4.32
2024-01-03T06:56:40.319Z,4.53
2024-01-03T07:00:22.212Z,4.35
2024-01-03T07:04:04.633Z,3.20
2024-01-03T07:07:46.504Z,3.95
2024-01-03T07:11:28.392Z,4.38
2024-01-03T07:15:10.933Z,4.13
2024-01-03T07:18:53.010Z,4.50
2024-01-03T07:22:34.962Z,4.00
2024-01-03T07:26:16.759Z,3.63
2024-01-03T07:29:58.629Z,4.20
2024-01-03T07:33:41.715Z,4.45
2024-01-03T07:37:23.699Z,4.55
2024-01-03T07:41:05.491Z,4.43
2024-01-03T07:44:47.300Z,3.63
2024-01-03T07:48:29.328Z,4.47
2024-01-03T07:52:11.202Z,4.53
2024-01-03T07:55:54.225Z,4.68
2024-01-03T07:59:36.146Z,4.72
2024-01-03T08:03:17.974Z,4.47
2024-01-03T08:06:59.948Z,3.58
2024-01-03T08:10:41.856Z,4.25
2024-01-03T08:14:24.817Z,4.10
2024-01-03T08:18:06.922Z,3.88
2024-01-03T08:21:48.856Z,3.97
2024-01-03T08:25:30.855Z,4.25
2024-01-03T08:29:12.796Z,4.40
2024-01-03T08:32:54.689Z,4.35
2024-01-03T08:36:44.758Z,4.25
2024-01-03T08:40:26.611Z,4.78
2024-01-03T08:44:08.583Z,4.10
2024-01-03T08:47:53.189Z,3.55
2024-01-03T08:51:36.506Z,3.65
2024-01-03T08:55:18.447Z,4.25
2024-01-03T08:59:00.241Z,3.15
2024-01-03T09:02:42.179Z,3.60
2024-01-03T09:06:26.682Z,3.75
2024-01-03T09:10:09.017Z,3.45
2024-01-03T09:13:51.037Z,3.78
2024-01-03T09:17:32.903Z,3.88
2024-01-03T09:21:16.591Z,4.28
2024-01-03T09:24:58.446Z,3.28
2024-01-03T09:28:43.216Z,3.67
2024-01-03T09:32:25.315Z,3.88
2024-01-03T09:36:07.836Z,3.72
2024-01-03T09:39:49.686Z,3.58
2024-01-03T09:43:32.787Z,3.58
2024-01-03T09:47:14.667Z,3.45
2024-01-03T09:50:57.377Z,4.20
2024-01-03T09:54:40.302Z,3.33
2024-01-03T09:58:25.656Z,4.13
2024-01-03T10:02:08.175Z,3.25
2024-01-03T10:06:09.995Z,3.63
2024-01-03T10:09:54.505Z,3.42
2024-01-03T10:13:37.939Z,3.10
2024-01-03T10:17:22.123Z,3.35
2024-01-03T10:21:14.281Z,3.70
2024-01-03T10:24:56.601Z,3.90
2024-01-03T10:28:39.217Z,3.15
2024-01-03T10:32:21.670Z,3.70
2024-01-03T10:36:11.229Z,3.00
2024-01-03T10:39:56.845Z,3.40
2024-01-03T10:43:39.514Z,3.15
2024-01-03T10:47:21.536Z,3.00
2024-01-03T10:51:04.418Z,2.85
2024-01-03T10:54:53.929Z,2.15
2024-01-03T10:58:38.360Z,2.50
2024-01-03T11:02:32.435Z,2.17
2024-01-03T11:06:39.422Z,2.88
2024-01-03T11:10:51.600Z,2.47
2024-01-03T11:14:33.530Z,2.78
2024-01-03T11:18:41.379Z,2.60
2024-01-03T11:22:23.511Z,3.60
2024-01-03T11:26:05.382Z,3.00
2024-01-03T11:29:49.959Z,2.67
2024-01-03T11:33:33.557Z,2.95
2024-01-03T11:37:19.434Z,2.58
2024-01-03T11:41:02.267Z,3.17
2024-01-03T11:44:44.473Z,3.13
2024-01-03T11:48:26.332Z,2.20
2024-01-03T11:52:08.289Z,2.78
2024-01-03T11:55:53.903Z,2.83
2024-01-03T11:59:35.825Z,2.58
2024-01-03T12:03:22.338Z,2.60
2024-01-03T12:07:04.467Z,2.75
2024-01-03T12:10:46.438Z,2.42
2024-01-03T12:14:31.132Z,3.00
2024-01-03T12:18:13.294Z,1.92
2024-01-03T12:21:58.718Z,2.70
2024-01-03T12:25:41.120Z,2.88
2024-01-03T12:29:23.045Z,1.77
2024-01-03T12:33:13.197Z,2.55
2024-01-03T12:36:55.804Z,2.35
2024-01-03T12:40:37.637Z,2.22
2024-01-03T12:44:19.416Z,3.03
2024-01-03T12:48:01.346Z,2.00
2024-01-03T12:51:47.088Z,2.80
2024-01-03T12:55:29.513Z,2.30
2024-01-03T12:59:11.599Z,2.35
2024-01-03T13:02:53.525Z,3.20
2024-01-03T13:06:35.664Z,2.60
2024-01-03T13:10:17.592Z,1.90
2024-01-03T13:13:59.849Z,2.13
2024-01-03T13:17:42.600Z,2.67
2024-01-03T13:21:24.570Z,2.65
2024-01-03T13:25:06.784Z,2.65
2024-01-03T13:28:48.658Z,3.95
2024-01-03T13:32:30.595Z,3.10
2024-01-03T13:36:13.203Z,3.30
2024-01-03T13:39:55.005Z,2.67
2024-01-03T13:43:37.383Z,3.72
2024-01-03T13:47:22.193Z,2.50
2024-01-03T13:51:04.372Z,3.15
2024-01-03T13:54:46.210Z,3.60
2024-01-03T13:58:28.056Z,3.53
2024-01-03T14:02:10.497Z,3.58
2024-01-03T14:05:52.329Z,3.70
2024-01-03T14:09:34.311Z,4.07
2024-01-03T14:13:16.106Z,2.63
2024-01-03T14:17:01.597Z,3.22
2024-01-03T14:20:43.445Z,3.20
2024-01-03T14:24:25.274Z,3.45
2024-01-03T14:28:07.645Z,4.50
2024-01-03T14:31:49.560Z,3.80
2024-01-03T14:35:32.331Z,4.47
2024-01-03T14:39:14.297Z,3.22
2024-01-03T14:43:04.112Z,4.03
2024-01-03T14:46:45.927Z,3.40
2024-01-03T14:50:30.103Z,3.75
2024-01-03T14:54:12.074Z,3.83
2024-01-03T14:57:53.926Z,4.00
2024-01-03T15:01:35.755Z,3.72
2024-01-03T15:05:17.554Z,4.15
2024-01-03T15:08:59.494Z,4.88
2024-01-03T15:12:41.613Z,4.20
2024-01-03T15:16:23.522Z,3.50
2024-01-03T15:20:06.360Z,4.75
2024-01-03T15:23:49.546Z,4.47
2024-01-03T15:27:34.529Z,4.38
2024-01-03T15:31:16.921Z,3.65
2024-01-03T15:34:58.919Z,3.00
2024-01-03T15:38:40.870Z,3.78
2024-01-03T15:42:22.684Z,3.60
2024-01-03T15:46:04.510Z,3.90
2024-01-03T15:49:46.364Z,3.65
2024-01-03T15:53:28.171Z,3.80
2024-01-03T15:57:10.027Z,3.38
2024-01-03T16:00:51.994Z,3.67
2024-01-03T16:04:34.602Z,3.83
2024-01-03T16:08:16.403Z,2.85
2024-01-03T16:11:58.317Z,2.88
2024-01-03T16:15:40.211Z,2.83
2024-01-03T16:19:22.153Z,2.63
2024-01-03T16:23:04.226Z,3.00
2024-01-03T16:26:51.003Z,1.42
2024-01-03T16:30:33.021Z,2.40
2024-01-03T16:34:15.097Z,2.25
2024-01-03T16:37:57.418Z,2.20
2024-01-03T16:41:39.259Z,2.70
2024-01-03T16:45:23.690Z,3.03
2024-01-03T16:49:06.091Z,3.25
2024-01-03T16:52:47.939Z,2.47
2024-01-03T16:56:29.732Z,3.72
2024-01-03T17:00:12.824Z,3.30
2024-01-03T17:03:55.436Z,2.25
2024-01-03T17:07:37.268Z,3.10
2024-01-03T17:11:28.704Z,2.63
2024-01-03T17:15:10.693Z,3.05
2024-01-03T17:18:55.693Z,2.90
2024-01-03T17:22:37.758Z,3.28
2024-01-03T17:26:20.886Z,3.58
2024-01-03T17:30:02.797Z,4.82
2024-01-03T17:33:46.729Z,3.40
2024-01-03T17:37:28.766Z,3.83
2024-01-03T17:41:18.262Z,4.05
2024-01-03T17:45:00.059Z,4.47
2024-01-03T17:48:42.472Z,3.35
2024-01-03T17:52:24.995Z,5.03
2024-01-03T17:56:08.876Z,4.32
2024-01-03T17:59:51.185Z,5.40
2024-01-03T18:03:35.020Z,4.35
2024-01-03T18:07:16.973Z,3.50
2024-01-03T18:11:01.596Z,4.35
2024-01-03T18:14:44.028Z,4.75
2024-01-03T18:18:26.009Z,4.03
2024-01-03T18:22:09.949Z,3.92
2024-01-03T18:25:52.493Z,3.08
2024-01-03T18:29:34.320Z,4.45
2024-01-03T18:33:18.522Z,4.20
2024-01-03T18:37:02.345Z,4.18
2024-01-03T18:40:44.181Z,4.97
2024-01-03T18:44:26.135Z,3.47
2024-01-03T18:48:10.870Z,3.22
2024-01-03T18:51:53.286Z,3.33
2024-01-03T18:55:35.195Z,3.58
2024-01-03T18:59:16.989Z,2.60
2024-01-03T19:02:58.915Z,2.78
2024-01-03T19:06:40.724Z,3.42
2024-01-03T19:10:22.543Z,3.22
2024-01-03T19:14:05.382Z,5.43
2024-01-03T19:17:47.362Z,3.15
2024-01-03T19:21:29.672Z,3.08
2024-01-03T19:25:14.441Z,2.53
2024-01-03T19:28:56.383Z,3.53
2024-01-03T19:32:38.474Z,2.47
2024-01-03T19:36:21.383Z,2.92
2024-01-03T19:40:03.440Z,3.22
2024-01-03T19:43:45.462Z,2.70
2024-01-03T19:47:27.461Z,3.63
2024-01-03T19:51:18.995Z,4.38
2024-01-03T19:55:01.506Z,3.55
2024-01-03T19:58:43.649Z,3.45
2024-01-03T20:02:25.542Z,2.78
2024-01-03T20:06:07.500Z,3.67
2024-01-03T20:09:49.382Z,2.10
2024-01-03T20:13:31.193Z,2.30
2024-01-03T20:17:13.073Z,2.13
2024-01-03T20:20:54.895Z,2.17
2024-01-03T20:24:37.113Z,2.15
2024-01-03T20:28:18.920Z,2.45
2024-01-03T20:32:00.794Z,2.20
2024-01-03T20:35:42.709Z,2.67
2024-01-03T20:39:24.528Z,2.80
2024-01-03T20:43:06.353Z,3.50
2024-01-03T20:46:50.019Z,2.60
2024-01-03T20:50:34.242Z,2.25
2024-01-03T20:54:16.089Z,3.28
2024-01-03T20:57:58.139Z,2.50
2024-01-03T21:01:51.355Z,2.90
2024-01-03T21:05:33.405Z,3.42
2024-01-03T21:09:15.347Z,3.40
2024-01-03T21:12:57.673Z,3.25
2024-01-03T21:16:39.602Z,2.85
2024-01-03T21:20:21.462Z,2.50
2024-01-03T21:24:03.427Z,2.30
2024-01-03T21:27:50.507Z,2.45
2024-01-03T21:31:33.948Z,2.65
2024-01-03T21:35:15.850Z,3.10
2024-01-03T21:38:57.661Z,2.72
2024-01-03T21:42:43.216Z,2.20
2024-01-03T21:46:29.041Z,2.58
2024-01-03T21:50:11.864Z,2.67
2024-01-03T21:53:53.728Z,2.20
2024-01-03T21:57:37.743Z,2.03
2024-01-03T22:01:20.602Z,2.55
2024-01-03T22:05:04.624Z,2.70
2024-01-03T22:08:46.566Z,2.90
2024-01-03T22:12:28.529Z,3.25
2024-01-03T22:16:10.442Z,3.05
2024-01-03T22:19:52.315Z,2.85
2024-01-03T22:23:35.057Z,3.03
2024-01-03T22:27:17.664Z,2.20
2024-01-03T22:30:59.505Z,2.38
2024-01-03T22:34:41.478Z,2.20
2024-01-03T22:38:23.320Z,2.35
2024-01-03T22:42:05.637Z,1.80
2024-01-03T22:45:47.937Z,1.60
2024-01-03T22:49:30.301Z,1.40
2024-01-03T22:53:14.183Z,1.73
2024-01-03T22:56:56.044Z,1.52
2024-01-03T23:00:39.201Z,1.95
2024-01-03T23:04:21.755Z,2.58
2024-01-03T23:08:03.905Z,2.20
2024-01-03T23:11:48.789Z,2.75
2024-01-03T23:15:30.615Z,3.20
2024-01-03T23:19:12.631Z,2.40
2024-01-03T23:23:04.402Z,2.53
2024-01-03T23:26:51.686Z,1.88
2024-01-03T23:30:33.624Z,1.90
2024-01-03T23:34:15.653Z,2.03
2024-01-03T23:37:57.548Z,2.17
2024-01-03T23:41:39.635Z,2.22
2024-01-03T23:45:27.165Z,2.03
2024-01-03T23:49:09.752Z,2.33
2024-01-03T23:52:51.651Z,2.15
2024-01-03T23:56:33.445Z,1.98
